Time;durP1;ratioP1;P1;durP2;ratioP2;P2;SDS_P1;SDS_P2;PMS_P1;PMS_P2;Temp;Humidity;BMP_temperature;BMP_pressure;BME280_temperature;BME280_humidity;BME280_pressure;Samples;Min_cycle;Max_cycle;Signal;HPM_P1;HPM_P2
2023/10/13 00:00:30;;;;;;;2.03;0.90;;;16.60;99.90;;;;;;5028442;28;20078;-56
2023/10/13 00:03:00;;;;;;;1.73;0.70;;;16.60;99.90;;;;;;5027714;28;20060;-55
2023/10/13 00:05:28;;;;;;;2.55;0.90;;;16.70;99.90;;;;;;5030521;28;20049;-55
2023/10/13 00:07:54;;;;;;;2.42;1.05;;;16.70;99.90;;;;;;5030277;28;20043;-54
2023/10/13 00:10:19;;;;;;;1.30;0.77;;;16.80;99.90;;;;;;5029033;28;20153;-56
2023/10/13 00:12:51;;;;;;;5.28;1.00;;;16.80;99.90;;;;;;5020999;28;20029;-57
2023/10/13 00:15:17;;;;;;;2.95;0.95;;;16.80;99.90;;;;;;5030386;28;20049;-55
2023/10/13 00:17:43;;;;;;;2.55;0.60;;;16.90;99.90;;;;;;5028936;28;20444;-57
2023/10/13 00:20:33;;;;;;;1.48;0.88;;;17.00;99.90;;;;;;5027483;28;20021;-54
2023/10/13 00:22:59;;;;;;;3.13;1.00;;;17.10;99.90;;;;;;5028709;28;20033;-51
2023/10/13 00:25:31;;;;;;;5.40;1.20;;;17.20;99.90;;;;;;5030062;28;20127;-53
2023/10/13 00:27:57;;;;;;;2.28;1.38;;;17.20;99.90;;;;;;5029346;28;20064;-56
2023/10/13 00:30:33;;;;;;;3.83;1.08;;;17.30;99.90;;;;;;5027972;28;20032;-54
2023/10/13 00:32:59;;;;;;;4.43;1.40;;;17.40;99.90;;;;;;5021462;28;20065;-57
2023/10/13 00:35:35;;;;;;;7.25;1.75;;;17.40;99.90;;;;;;5034149;28;20040;-54
2023/10/13 00:38:23;;;;;;;6.10;1.17;;;17.50;99.90;;;;;;5033976;28;20091;-49
2023/10/13 00:40:51;;;;;;;5.25;2.17;;;17.50;99.90;;;;;;5022466;28;20116;-52
2023/10/13 00:45:57;;;;;;;8.95;2.28;;;17.50;99.90;;;;;;5033160;28;20037;-50
2023/10/13 00:48:33;;;;;;;6.57;2.03;;;17.50;99.90;;;;;;5033755;28;20490;-57
2023/10/13 00:51:06;;;;;;;10.73;2.08;;;17.50;99.90;;;;;;5031701;28;20507;-50
2023/10/13 00:53:44;;;;;;;10.73;2.08;;;17.50;99.90;;;;;;5032509;28;20030;-56
2023/10/13 00:56:19;;;;;;;7.63;2.20;;;17.50;99.90;;;;;;5033701;28;20026;-54
2023/10/13 00:58:52;;;;;;;10.20;2.72;;;17.40;99.90;;;;;;5034017;28;20044;-52
2023/10/13 01:01:21;;;;;;;11.05;2.40;;;17.30;99.90;;;;;;5029964;28;20057;-50
2023/10/13 01:04:02;;;;;;;3.73;1.87;;;17.30;99.90;;;;;;5033888;28;20033;-53
2023/10/13 01:06:28;;;;;;;9.20;2.60;;;17.30;99.90;;;;;;5030296;28;20026;-56
2023/10/13 01:09:16;;;;;;;7.13;2.25;;;17.30;99.90;;;;;;5024300;28;20075;-55
2023/10/13 01:11:54;;;;;;;7.55;2.50;;;17.20;99.90;;;;;;5028692;28;20022;-53
2023/10/13 01:14:23;;;;;;;7.70;2.10;;;17.30;99.90;;;;;;5033433;28;20043;-54
2023/10/13 01:16:52;;;;;;;8.32;2.67;;;17.20;99.90;;;;;;5032823;28;20018;-56
2023/10/13 01:19:19;;;;;;;8.60;2.13;;;17.20;99.90;;;;;;5032108;28;20029;-56
2023/10/13 01:21:45;;;;;;;12.98;2.47;;;17.20;99.90;;;;;;5030310;28;20468;-53
2023/10/13 01:24:13;;;;;;;7.65;2.67;;;17.20;99.90;;;;;;5033092;28;20052;-55
2023/10/13 01:26:39;;;;;;;8.93;2.35;;;17.20;99.90;;;;;;5033062;28;20033;-55
2023/10/13 01:29:14;;;;;;;7.85;2.78;;;17.20;99.90;;;;;;5033013;28;20025;-54
2023/10/13 01:31:48;;;;;;;7.70;2.33;;;17.20;99.90;;;;;;5023383;28;20370;-55
2023/10/13 01:34:21;;;;;;;9.68;3.10;;;17.20;99.90;;;;;;5032988;28;20025;-54
2023/10/13 01:37:05;;;;;;;10.02;2.55;;;17.20;99.90;;;;;;5033155;28;20422;-50
2023/10/13 01:39:31;;;;;;;10.20;2.00;;;17.20;99.90;;;;;;5032846;28;20053;-54
2023/10/13 01:41:57;;;;;;;8.70;2.60;;;17.20;99.90;;;;;;5019843;28;20414;-48
2023/10/13 01:44:24;;;;;;;6.60;2.38;;;17.20;99.90;;;;;;5030415;28;20059;-47
2023/10/13 01:46:51;;;;;;;7.47;2.15;;;17.20;99.90;;;;;;5027755;28;20635;-47
2023/10/13 01:49:16;;;;;;;10.15;2.67;;;17.20;99.90;;;;;;5032148;28;20064;-47
2023/10/13 01:51:42;;;;;;;7.90;2.63;;;17.20;99.90;;;;;;5032527;28;20112;-47
2023/10/13 01:54:12;;;;;;;9.85;3.53;;;17.20;99.90;;;;;;5020771;28;20065;-50
2023/10/13 01:56:48;;;;;;;11.45;3.08;;;17.20;99.90;;;;;;5033066;28;20029;-53
2023/10/13 01:59:15;;;;;;;17.52;4.28;;;17.20;99.90;;;;;;5031995;28;20065;-55
2023/10/13 02:01:41;;;;;;;11.55;3.13;;;17.20;99.90;;;;;;5030522;28;20104;-56
2023/10/13 02:04:08;;;;;;;16.80;3.35;;;17.10;99.90;;;;;;5029428;28;20045;-56
2023/10/13 02:06:38;;;;;;;12.45;3.20;;;17.10;99.90;;;;;;5032289;28;20025;-51
2023/10/13 02:09:25;;;;;;;9.20;2.97;;;17.10;99.90;;;;;;5032189;28;20024;-56
2023/10/13 02:11:56;;;;;;;10.88;3.03;;;17.00;99.90;;;;;;5027942;28;20021;-53
2023/10/13 02:14:22;;;;;;;19.50;4.13;;;17.00;99.90;;;;;;5031928;28;20037;-54
2023/10/13 02:16:55;;;;;;;12.50;3.47;;;17.00;99.90;;;;;;5029818;28;20025;-50
2023/10/13 02:19:22;;;;;;;10.77;3.38;;;17.00;99.90;;;;;;5023404;28;20030;-56
2023/10/13 02:21:58;;;;;;;12.48;3.85;;;17.00;99.90;;;;;;5027098;28;20489;-55
2023/10/13 02:24:29;;;;;;;10.73;3.80;;;17.00;99.90;;;;;;5023676;28;20104;-52
2023/10/13 02:27:02;;;;;;;12.40;3.67;;;17.00;99.90;;;;;;5029384;28;20029;-52
2023/10/13 02:29:28;;;;;;;10.20;3.40;;;17.00;99.90;;;;;;5030231;28;20066;-53
2023/10/13 02:31:54;;;;;;;12.65;4.07;;;17.00;99.90;;;;;;5029194;28;20076;-52
2023/10/13 02:34:22;;;;;;;11.93;3.22;;;17.00;99.90;;;;;;5031044;28;20029;-54
2023/10/13 02:36:51;;;;;;;11.77;3.67;;;17.00;99.90;;;;;;5032149;28;20107;-54
2023/10/13 02:39:24;;;;;;;11.00;3.30;;;17.00;99.90;;;;;;5031677;28;20036;-50
2023/10/13 02:41:51;;;;;;;13.25;3.42;;;16.90;99.90;;;;;;5032061;28;20400;-51
2023/10/13 02:44:33;;;;;;;9.90;3.35;;;16.90;99.90;;;;;;5028353;28;20132;-52
2023/10/13 02:46:59;;;;;;;9.13;3.35;;;16.90;99.90;;;;;;5021893;28;20075;-53
2023/10/13 02:49:31;;;;;;;10.77;3.47;;;16.90;99.90;;;;;;5029925;28;20443;-51
2023/10/13 02:51:59;;;;;;;12.60;3.47;;;16.90;99.90;;;;;;5024377;28;20025;-56
2023/10/13 02:54:30;;;;;;;10.32;3.45;;;16.90;99.90;;;;;;5031234;28;20042;-53
2023/10/13 02:57:03;;;;;;;11.00;3.85;;;16.90;99.90;;;;;;5023431;28;20349;-53
2023/10/13 02:59:55;;;;;;;8.95;3.05;;;16.90;99.90;;;;;;5016812;28;20033;-52
2023/10/13 03:02:25;;;;;;;14.38;4.13;;;16.90;99.90;;;;;;5023382;28;20385;-53
2023/10/13 03:04:52;;;;;;;9.55;3.22;;;17.00;99.90;;;;;;5031360;28;20033;-51
2023/10/13 03:07:23;;;;;;;9.07;3.50;;;17.00;99.90;;;;;;5031328;28;20543;-50
2023/10/13 03:09:52;;;;;;;12.13;3.75;;;17.00;99.90;;;;;;5031233;28;20096;-53
2023/10/13 03:12:18;;;;;;;8.23;3.10;;;17.10;99.90;;;;;;5023028;28;20030;-52
2023/10/13 03:14:56;;;;;;;12.98;4.47;;;17.10;99.90;;;;;;5031151;28;20029;-48
2023/10/13 03:17:33;;;;;;;11.35;3.08;;;17.20;99.90;;;;;;5025538;28;20022;-52
2023/10/13 03:19:59;;;;;;;14.07;3.47;;;17.20;99.90;;;;;;5027541;28;20040;-51
2023/10/13 03:22:32;;;;;;;17.38;3.83;;;17.30;99.90;;;;;;5029838;28;20502;-54
2023/10/13 03:25:05;;;;;;;12.07;4.22;;;17.30;99.90;;;;;;5028295;28;20064;-54
2023/10/13 03:28:00;;;;;;;10.60;3.80;;;17.40;99.90;;;;;;5029289;28;20479;-51
2023/10/13 03:30:38;;;;;;;15.57;4.03;;;17.50;99.90;;;;;;5030150;28;20033;-53
2023/10/13 03:33:14;;;;;;;20.58;4.80;;;17.50;99.90;;;;;;5029010;28;20036;-50
2023/10/13 03:35:43;;;;;;;11.43;4.03;;;17.50;99.90;;;;;;5018662;28;20025;-52
2023/10/13 03:38:18;;;;;;;12.95;3.97;;;17.60;99.90;;;;;;5030880;28;20032;-52
2023/10/13 03:40:55;;;;;;;12.85;3.92;;;17.60;99.90;;;;;;5029435;28;20072;-53
2023/10/13 03:43:24;;;;;;;9.32;3.83;;;17.60;99.90;;;;;;5023036;28;20086;-54
2023/10/13 03:46:08;;;;;;;13.38;3.67;;;17.70;99.90;;;;;;5030559;28;20030;-53
2023/10/13 03:48:40;;;;;;;15.20;3.70;;;17.60;99.90;;;;;;5026799;28;20026;-55
2023/10/13 03:51:15;;;;;;;16.25;4.03;;;17.70;99.90;;;;;;5029795;28;20033;-52
2023/10/13 03:53:54;;;;;;;20.75;4.43;;;17.70;99.90;;;;;;5021663;28;20145;-51
2023/10/13 03:56:26;;;;;;;10.70;3.83;;;17.70;99.90;;;;;;5029083;28;20025;-48
2023/10/13 03:58:54;;;;;;;13.07;4.00;;;17.70;99.90;;;;;;5017998;28;20057;-51
2023/10/13 04:01:34;;;;;;;14.65;3.97;;;17.70;99.90;;;;;;5030466;28;20442;-54
2023/10/13 04:04:48;;;;;;;14.90;4.40;;;17.60;99.90;;;;;;5021012;28;20066;-54
2023/10/13 04:17:26;;;;;;;14.05;4.22;;;17.60;99.90;;;;;;5030538;28;20036;-54
2023/10/13 04:25:35;;;;;;;10.73;3.28;;;17.60;99.90;;;;;;5024872;28;20049;-55
2023/10/13 04:36:16;;;;;;;16.17;4.40;;;17.50;99.90;;;;;;5028793;28;20041;-56
2023/10/13 04:46:54;;;;;;;20.75;4.88;;;17.50;99.90;;;;;;5020861;28;20453;-48
2023/10/13 04:49:29;;;;;;;13.40;4.38;;;17.50;99.90;;;;;;5028370;28;20448;-57
2023/10/13 04:52:12;;;;;;;14.48;4.13;;;17.50;99.90;;;;;;5026433;28;20045;-51
2023/10/13 06:29:56;;;;;;;22.65;5.13;;;18.30;99.90;;;;;;5028139;28;20115;-57
2023/10/13 06:32:25;;;;;;;19.48;4.20;;;18.30;99.90;;;;;;5026369;28;20042;-56
2023/10/13 06:34:58;;;;;;;9.35;3.30;;;18.30;99.90;;;;;;5023419;28;20026;-56
2023/10/13 06:37:30;;;;;;;10.88;3.30;;;18.30;99.90;;;;;;5026953;28;20026;-57
2023/10/13 06:39:59;;;;;;;12.13;3.67;;;18.30;99.90;;;;;;5030220;28;20495;-56
2023/10/13 06:42:28;;;;;;;16.15;4.25;;;18.30;99.90;;;;;;5024490;28;20091;-57
2023/10/13 06:45:00;;;;;;;13.43;3.67;;;18.30;99.90;;;;;;5031264;28;20381;-56
2023/10/13 06:47:27;;;;;;;12.32;3.60;;;18.40;99.90;;;;;;5029626;28;20104;-56
2023/10/13 06:49:54;;;;;;;14.43;3.90;;;18.40;99.90;;;;;;5028234;28;20040;-57
2023/10/13 06:52:22;;;;;;;14.20;3.92;;;18.40;99.90;;;;;;5026410;28;20095;-56
2023/10/13 06:54:50;;;;;;;14.85;3.95;;;18.40;99.90;;;;;;5018399;28;20499;-56
2023/10/13 06:57:20;;;;;;;12.45;3.50;;;18.40;99.90;;;;;;5029129;28;20022;-57
2023/10/13 06:59:46;;;;;;;12.57;4.18;;;18.40;99.90;;;;;;5031197;28;20116;-60
2023/10/13 07:02:20;;;;;;;10.00;3.50;;;18.50;99.90;;;;;;5031012;28;20032;-58
2023/10/13 07:04:56;;;;;;;18.08;4.20;;;18.50;99.90;;;;;;5026111;28;20041;-58
2023/10/13 07:07:23;;;;;;;11.85;3.63;;;18.60;99.90;;;;;;5025117;28;20116;-57
2023/10/13 07:09:55;;;;;;;13.05;4.03;;;18.60;99.90;;;;;;5023245;28;20033;-58
2023/10/13 07:12:27;;;;;;;11.48;3.75;;;18.60;99.90;;;;;;5026775;28;20116;-58
2023/10/13 07:15:44;;;;;;;9.23;3.05;;;18.70;99.90;;;;;;5029242;28;20025;-59
2023/10/13 07:17:40;;;;;;;13.63;4.07;;;18.70;99.90;;;;;;5025386;28;20468;-58
2023/10/13 07:23:17;;;;;;;11.80;4.18;;;18.80;99.90;;;;;;5007966;28;20041;-58
2023/10/13 07:25:51;;;;;;;11.48;3.00;;;18.80;99.90;;;;;;5007836;28;20042;-58
2023/10/13 07:28:16;;;;;;;11.73;4.07;;;18.90;99.90;;;;;;5018743;28;20044;-59
2023/10/13 07:33:21;;;;;;;9.97;3.33;;;18.90;99.90;;;;;;5026468;28;20030;-58
2023/10/13 07:35:50;;;;;;;8.55;3.20;;;18.90;99.90;;;;;;5029498;28;20108;-59
2023/10/13 07:38:16;;;;;;;9.15;3.63;;;18.90;99.90;;;;;;5028826;28;20117;-58
2023/10/13 07:40:50;;;;;;;11.07;3.00;;;18.90;99.90;;;;;;5028467;28;20503;-58
2023/10/13 07:43:21;;;;;;;10.45;3.22;;;18.80;99.90;;;;;;5025642;28;20109;-58
2023/10/13 07:45:51;;;;;;;10.77;3.53;;;18.80;99.90;;;;;;5023108;28;20064;-58
2023/10/13 07:48:20;;;;;;;9.65;3.17;;;18.80;99.90;;;;;;5029526;28;20023;-58
2023/10/13 07:51:01;;;;;;;10.88;3.55;;;18.80;99.90;;;;;;5029749;28;20025;-58
2023/10/13 07:53:28;;;;;;;8.82;3.50;;;18.80;99.90;;;;;;5029852;28;20030;-58
2023/10/13 07:56:02;;;;;;;8.38;3.40;;;18.90;99.90;;;;;;5030202;28;20127;-59
2023/10/13 07:58:27;;;;;;;12.13;4.05;;;18.90;99.90;;;;;;5030372;28;20029;-57
2023/10/13 08:03:34;;;;;;;15.80;4.40;;;18.90;99.90;;;;;;5028816;28;20034;-59
2023/10/13 08:06:18;;;;;;;12.35;3.47;;;18.90;99.90;;;;;;5029024;28;20551;-59
2023/10/13 08:08:49;;;;;;;15.95;3.97;;;18.90;99.90;;;;;;5024961;28;20072;-54
2023/10/13 08:11:25;;;;;;;11.00;4.22;;;19.00;99.90;;;;;;5027894;28;20137;-53
2023/10/13 08:14:00;;;;;;;9.50;3.63;;;19.00;99.90;;;;;;5029835;28;20463;-56
2023/10/13 08:16:45;;;;;;;14.73;4.00;;;19.00;99.90;;;;;;5030068;28;20425;-57
2023/10/13 08:19:15;;;;;;;12.40;3.38;;;19.10;99.90;;;;;;5028407;28;20064;-58
2023/10/13 08:21:49;;;;;;;11.82;3.80;;;19.10;99.90;;;;;;5027508;28;20044;-59
2023/10/13 08:24:16;;;;;;;13.82;4.88;;;19.10;99.90;;;;;;5026630;28;20041;-62
2023/10/13 08:27:32;;;;;;;14.30;4.75;;;19.10;99.90;;;;;;5021783;28;20034;-56
2023/10/13 08:45:53;;;;;;;;;;;18.60;99.90;;;;;;5023919;28;20041;-52
2023/10/13 08:48:07;;;;;;;12.40;4.07;;;18.50;99.90;;;;;;5027355;28;19963;-56
2023/10/13 08:50:52;;;;;;;18.00;4.00;;;18.50;99.90;;;;;;5026522;28;20021;-50
2023/10/13 08:56:32;;;;;;;13.75;3.97;;;18.60;99.90;;;;;;5032094;28;20025;-58
2023/10/13 09:06:46;;;;;;;9.80;3.75;;;18.90;99.90;;;;;;5028705;28;19912;-59
2023/10/13 09:09:26;;;;;;;13.93;4.53;;;19.00;99.90;;;;;;5033355;28;20028;-55
2023/10/13 09:12:09;;;;;;;19.00;3.97;;;19.10;99.90;;;;;;5029156;28;20033;-45
2023/10/13 09:14:43;;;;;;;13.77;3.92;;;19.10;99.90;;;;;;5031805;28;20168;-45
2023/10/13 09:17:12;;;;;;;13.10;4.22;;;19.10;99.90;;;;;;5020820;28;20092;-45
2023/10/13 09:19:57;;;;;;;13.13;4.03;;;19.20;99.90;;;;;;5026328;28;20022;-51
2023/10/13 09:22:36;;;;;;;12.95;3.83;;;19.20;99.90;;;;;;5029912;28;20045;-44
2023/10/13 09:25:05;;;;;;;14.88;4.20;;;19.30;99.90;;;;;;5025117;28;20036;-58
2023/10/13 09:27:37;;;;;;;9.95;4.03;;;19.40;99.90;;;;;;5030583;28;20550;-59
2023/10/13 09:30:18;;;;;;;15.30;4.30;;;19.40;99.90;;;;;;5032115;28;20025;-58
2023/10/13 09:32:48;;;;;;;9.15;3.70;;;19.50;99.90;;;;;;5028689;28;20041;-52
2023/10/13 09:35:27;;;;;;;12.63;4.20;;;19.50;99.90;;;;;;5030305;28;20040;-58
2023/10/13 09:37:56;;;;;;;18.50;4.70;;;19.40;99.90;;;;;;5036175;28;20025;-51
2023/10/13 09:40:27;;;;;;;12.43;4.10;;;19.40;99.90;;;;;;5038892;28;20021;-55
2023/10/13 09:42:55;;;;;;;14.13;4.32;;;19.30;99.90;;;;;;5034554;28;20025;-57
2023/10/13 09:45:27;;;;;;;13.35;3.95;;;19.20;99.90;;;;;;5042983;28;20030;-58
2023/10/13 09:47:57;;;;;;;14.80;3.63;;;19.10;99.90;;;;;;5036401;28;20053;-58
2023/10/13 09:50:26;;;;;;;14.65;4.15;;;19.00;99.90;;;;;;5030459;28;20108;-58
2023/10/13 09:52:53;;;;;;;13.50;4.43;;;19.00;99.90;;;;;;5030915;28;20080;-60
2023/10/13 09:55:34;;;;;;;15.02;4.22;;;19.00;99.90;;;;;;5032044;28;20045;-57
2023/10/13 09:58:28;;;;;;;14.07;4.00;;;19.00;99.90;;;;;;5020906;28;20091;-59
2023/10/13 10:00:58;;;;;;;16.45;4.20;;;19.00;99.90;;;;;;5024514;28;20029;-57
2023/10/13 10:03:39;;;;;;;17.55;4.55;;;19.00;99.90;;;;;;5022825;28;20026;-57
2023/10/13 10:06:14;;;;;;;15.00;4.15;;;19.00;99.90;;;;;;5029179;28;20043;-60
2023/10/13 10:08:50;;;;;;;12.55;4.60;;;19.00;99.90;;;;;;5028931;28;20556;-53
2023/10/13 10:11:45;;;;;;;19.02;4.15;;;19.00;99.90;;;;;;5028856;28;20026;-50
2023/10/13 10:14:19;;;;;;;11.75;4.25;;;19.00;99.90;;;;;;5030767;28;20385;-48
2023/10/13 10:17:07;;;;;;;18.83;4.25;;;19.00;99.90;;;;;;5031625;28;20376;-52
2023/10/13 10:19:54;;;;;;;14.68;4.75;;;19.10;99.90;;;;;;5031846;28;20029;-50
2023/10/13 10:22:35;;;;;;;14.80;4.78;;;19.10;99.90;;;;;;5031929;28;20053;-59
2023/10/13 10:25:24;;;;;;;14.00;4.97;;;19.10;99.90;;;;;;5031670;28;20526;-57
2023/10/13 10:27:56;;;;;;;16.33;3.70;;;19.10;99.90;;;;;;5029930;28;20029;-58
2023/10/13 10:30:29;;;;;;;14.30;3.90;;;19.10;99.90;;;;;;5029509;28;20067;-55
2023/10/13 10:32:59;;;;;;;17.45;4.43;;;19.00;99.90;;;;;;5029860;28;20448;-55
2023/10/13 10:35:29;;;;;;;12.63;3.88;;;19.00;99.90;;;;;;5030656;28;20029;-57
2023/10/13 10:38:03;;;;;;;14.80;4.00;;;19.00;99.90;;;;;;5030600;28;20021;-57
2023/10/13 10:40:47;;;;;;;17.35;4.07;;;18.90;99.90;;;;;;5030597;28;20026;-57
2023/10/13 10:43:17;;;;;;;16.60;4.57;;;18.90;99.90;;;;;;5031694;28;20025;-57
2023/10/13 10:45:49;;;;;;;19.50;4.22;;;18.90;99.90;;;;;;5031365;28;20033;-56
2023/10/13 10:48:18;;;;;;;18.65;4.32;;;18.80;99.90;;;;;;5031482;28;20075;-59
2023/10/13 10:50:54;;;;;;;13.43;4.75;;;18.80;99.90;;;;;;5031313;28;20037;-55
2023/10/13 10:53:33;;;;;;;22.02;4.57;;;18.80;99.90;;;;;;5031500;28;20169;-59
2023/10/13 10:59:21;;;;;;;10.23;3.75;;;18.70;99.90;;;;;;5019037;28;20038;-57
2023/10/13 11:01:47;;;;;;;12.60;4.05;;;18.80;99.90;;;;;;5031159;28;20030;-56
2023/10/13 11:06:56;;;;;;;13.35;3.65;;;18.80;99.90;;;;;;5031495;28;20022;-57
2023/10/13 11:09:31;;;;;;;20.80;3.85;;;18.90;99.90;;;;;;5030778;28;20032;-58
2023/10/13 11:12:16;;;;;;;17.20;3.97;;;19.00;99.90;;;;;;5031010;28;20033;-60
2023/10/13 11:14:46;;;;;;;15.57;3.90;;;19.00;99.90;;;;;;5030844;28;20018;-55
2023/10/13 11:17:26;;;;;;;19.75;4.18;;;19.20;99.90;;;;;;5031161;28;20033;-57
2023/10/13 11:19:52;;;;;;;17.77;3.85;;;19.50;99.90;;;;;;5030926;28;20104;-59
2023/10/13 11:25:14;;;;;;;11.52;2.90;;;20.40;99.90;;;;;;5030765;28;20199;-59
2023/10/13 11:30:14;;;;;;;16.85;3.42;;;20.60;99.90;;;;;;5030900;28;20044;-59
2023/10/13 11:32:41;;;;;;;12.68;3.03;;;20.40;99.90;;;;;;5030471;28;20049;-60
2023/10/13 11:35:20;;;;;;;12.02;3.17;;;20.10;99.90;;;;;;5030524;28;20487;-59
2023/10/13 11:37:55;;;;;;;16.13;3.05;;;19.90;99.90;;;;;;5030671;28;20033;-59
2023/10/13 11:40:43;;;;;;;10.18;2.95;;;19.70;99.90;;;;;;5030725;28;20025;-58
2023/10/13 11:43:13;;;;;;;16.63;3.65;;;19.60;99.90;;;;;;5030401;28;20551;-57
2023/10/13 11:45:53;;;;;;;14.52;2.28;;;19.70;99.90;;;;;;5030143;28;20420;-57
2023/10/13 11:48:34;;;;;;;13.50;3.38;;;19.80;99.90;;;;;;5030453;28;20049;-55
2023/10/13 11:51:00;;;;;;;11.82;2.60;;;19.80;99.90;;;;;;5030520;28;20104;-59
2023/10/13 11:53:28;;;;;;;15.20;3.05;;;19.90;99.90;;;;;;5030381;28;20029;-56
2023/10/13 11:55:55;;;;;;;14.18;2.67;;;19.90;99.90;;;;;;5030154;28;20472;-55
2023/10/13 11:58:21;;;;;;;15.75;2.60;;;19.90;99.90;;;;;;5030236;28;20026;-58
2023/10/13 12:09:13;;;;;;;16.45;2.30;;;19.70;99.90;;;;;;5029930;28;20025;-56
2023/10/13 12:11:41;;;;;;;9.93;2.22;;;19.80;99.90;;;;;;5030261;28;20025;-58
2023/10/13 12:14:19;;;;;;;12.23;3.00;;;20.00;99.90;;;;;;5030215;28;20037;-59
2023/10/13 12:16:51;;;;;;;14.32;2.75;;;20.40;99.90;;;;;;5029958;28;20028;-58
2023/10/13 12:19:23;;;;;;;11.63;2.50;;;20.50;99.90;;;;;;5029868;28;20040;-54
2023/10/13 12:21:49;;;;;;;14.57;2.45;;;20.70;99.90;;;;;;5029996;28;20032;-58
2023/10/13 12:24:53;;;;;;;10.27;2.50;;;20.80;99.90;;;;;;5029801;28;20175;-54
2023/10/13 12:27:19;;;;;;;10.48;2.05;;;20.60;99.90;;;;;;5028727;28;20045;-58
2023/10/13 12:29:51;;;;;;;14.23;1.90;;;20.70;99.90;;;;;;5033280;28;20030;-55
2023/10/13 12:32:22;;;;;;;11.65;2.03;;;20.70;99.90;;;;;;5033833;28;20041;-52
2023/10/13 12:51:40;;;;;;;7.15;1.80;;;21.10;99.90;;;;;;5033623;28;20032;-57
2023/10/13 12:54:13;;;;;;;13.75;2.60;;;21.10;99.90;;;;;;5033561;28;20025;-51
2023/10/13 12:56:41;;;;;;;13.48;2.15;;;21.00;99.90;;;;;;5032307;28;20029;-52
2023/10/13 12:59:09;;;;;;;13.23;2.60;;;20.60;99.90;;;;;;5033256;28;20392;-51
2023/10/13 13:01:35;;;;;;;13.07;2.65;;;20.40;99.90;;;;;;5033611;28;20033;-49
2023/10/13 13:04:03;;;;;;;8.75;1.88;;;20.30;99.90;;;;;;5033206;28;20695;-56
2023/10/13 13:06:29;;;;;;;14.50;2.80;;;20.10;99.90;;;;;;5033376;28;20075;-51
2023/10/13 13:08:59;;;;;;;5.15;1.58;;;20.10;99.90;;;;;;5032979;28;20376;-52
2023/10/13 13:11:25;;;;;;;10.70;1.92;;;20.30;99.90;;;;;;5033044;28;20060;-56
2023/10/13 13:13:51;;;;;;;7.90;1.88;;;20.50;99.90;;;;;;5033444;28;20081;-51
2023/10/13 13:16:19;;;;;;;11.80;1.90;;;20.50;99.90;;;;;;5032936;28;20033;-52
2023/10/13 13:18:45;;;;;;;9.55;2.53;;;20.60;99.90;;;;;;5033179;28;20039;-50
2023/10/13 13:21:22;;;;;;;14.05;2.10;;;20.60;99.90;;;;;;5032748;28;20030;-53
2023/10/13 13:23:48;;;;;;;16.17;2.97;;;20.70;99.90;;;;;;5032712;28;20430;-49
2023/10/13 13:26:17;;;;;;;12.77;1.77;;;20.80;99.90;;;;;;5032990;28;20029;-52
2023/10/13 13:28:50;;;;;;;13.73;2.30;;;20.80;99.90;;;;;;5031989;28;20108;-55
2023/10/13 13:31:25;;;;;;;7.82;1.50;;;20.90;99.90;;;;;;5032692;28;20053;-57
2023/10/13 13:33:50;;;;;;;12.07;2.25;;;20.90;99.90;;;;;;5032882;28;20032;-56
2023/10/13 13:36:16;;;;;;;7.43;1.92;;;20.90;99.90;;;;;;5032723;28;20026;-56
2023/10/13 13:38:46;;;;;;;11.52;2.10;;;20.80;99.90;;;;;;5032519;28;20037;-55
2023/10/13 13:41:16;;;;;;;9.38;2.50;;;20.60;99.90;;;;;;5031464;28;20041;-56
2023/10/13 13:46:17;;;;;;;10.25;2.20;;;21.20;99.90;;;;;;5032615;28;20137;-57
2023/10/13 13:48:47;;;;;;;13.20;2.80;;;21.10;99.90;;;;;;5031826;28;20049;-54
2023/10/13 13:51:19;;;;;;;12.18;2.47;;;21.00;99.90;;;;;;5032409;28;20025;-53
2023/10/13 13:53:47;;;;;;;9.57;1.85;;;21.20;99.90;;;;;;5028050;28;20048;-57
2023/10/13 13:56:18;;;;;;;15.63;2.45;;;20.90;99.90;;;;;;5037636;28;20026;-50
2023/10/13 13:58:44;;;;;;;10.68;2.60;;;20.70;99.90;;;;;;5041755;28;20388;-51
2023/10/13 14:01:18;;;;;;;9.80;2.00;;;20.50;99.90;;;;;;5030366;28;20045;-57
2023/10/13 14:03:45;;;;;;;12.00;2.45;;;20.50;99.90;;;;;;5030413;28;20294;-58
2023/10/13 14:06:18;;;;;;;13.93;2.60;;;20.40;99.90;;;;;;5032387;28;20031;-57
2023/10/13 14:08:48;;;;;;;15.15;3.28;;;20.40;99.90;;;;;;5026959;28;20539;-57
2023/10/13 14:14:28;;;;;;;16.48;3.33;;;20.50;99.90;;;;;;5032070;28;20021;-57
2023/10/13 14:17:02;;;;;;;9.77;2.17;;;20.40;99.90;;;;;;5027678;28;20492;-56
2023/10/13 14:19:28;;;;;;;19.20;3.00;;;20.20;99.90;;;;;;5030630;28;20128;-54
2023/10/13 14:21:57;;;;;;;12.38;2.72;;;20.30;99.90;;;;;;5031028;28;20120;-56
2023/10/13 14:24:27;;;;;;;13.90;2.20;;;20.10;99.90;;;;;;5031779;28;20022;-50
2023/10/13 14:26:57;;;;;;;11.90;2.45;;;20.10;99.90;;;;;;5031622;28;20029;-53
2023/10/13 14:29:26;;;;;;;14.68;2.78;;;20.00;99.90;;;;;;5031746;28;20033;-56
2023/10/13 14:31:52;;;;;;;11.60;2.45;;;19.90;99.90;;;;;;5031270;28;20381;-57
2023/10/13 14:34:21;;;;;;;13.07;2.42;;;19.80;99.90;;;;;;5031039;28;20033;-53
2023/10/13 14:36:48;;;;;;;7.70;1.60;;;20.00;99.90;;;;;;5031676;28;20034;-51
2023/10/13 14:39:14;;;;;;;11.55;2.20;;;20.10;99.90;;;;;;5020317;28;20021;-59
2023/10/13 14:41:40;;;;;;;14.35;2.35;;;20.10;99.90;;;;;;5031410;28;20032;-56
2023/10/13 14:44:06;;;;;;;7.72;1.55;;;19.90;99.90;;;;;;5031357;28;20034;-58
2023/10/13 14:46:35;;;;;;;9.23;1.77;;;19.90;99.90;;;;;;5031640;28;20080;-53
2023/10/13 14:49:02;;;;;;;;;;;19.80;99.90;;;;;;5031712;28;20017;-50
2023/10/13 14:51:28;;;;;;;14.07;2.03;;;19.80;99.90;;;;;;5030997;28;19909;-57
2023/10/13 14:53:56;;;;;;;14.00;2.17;;;19.70;99.90;;;;;;5030931;28;20057;-56
2023/10/13 14:56:25;;;;;;;9.93;1.73;;;19.70;99.90;;;;;;5031399;28;20057;-58
2023/10/13 14:58:51;;;;;;;13.23;1.77;;;19.60;99.90;;;;;;5031023;28;20114;-54
2023/10/13 15:01:22;;;;;;;10.25;1.98;;;19.50;99.90;;;;;;5031118;28;20022;-58
2023/10/13 15:03:50;;;;;;;12.18;2.17;;;19.60;99.90;;;;;;5030890;28;20063;-54
2023/10/13 15:06:20;;;;;;;7.40;2.03;;;19.80;99.90;;;;;;5030907;28;20021;-57
2023/10/13 15:08:47;;;;;;;8.25;1.85;;;19.90;99.90;;;;;;5030965;28;20033;-49
2023/10/13 15:11:13;;;;;;;7.93;1.50;;;20.00;99.90;;;;;;5030728;28;20017;-56
2023/10/13 15:13:43;;;;;;;8.98;1.70;;;20.10;99.90;;;;;;5031046;28;20014;-58
2023/10/13 15:16:18;;;;;;;6.75;1.50;;;20.10;99.90;;;;;;5030757;28;20029;-53
2023/10/13 15:18:52;;;;;;;10.00;1.60;;;20.00;99.90;;;;;;5030847;28;20476;-55
2023/10/13 15:21:24;;;;;;;12.45;2.40;;;20.00;99.90;;;;;;5030609;28;20443;-57
2023/10/13 15:23:51;;;;;;;12.45;1.75;;;20.00;99.90;;;;;;5030855;28;20079;-54
2023/10/13 15:26:18;;;;;;;8.75;1.90;;;19.90;99.90;;;;;;5028674;28;20072;-54
2023/10/13 15:28:49;;;;;;;15.40;2.63;;;19.90;99.90;;;;;;5029877;28;20021;-55
2023/10/13 15:34:00;;;;;;;14.57;2.63;;;19.80;99.90;;;;;;5030446;28;20068;-54
2023/10/13 15:36:27;;;;;;;7.65;1.23;;;19.80;99.90;;;;;;5029786;28;20072;-53
2023/10/13 15:38:53;;;;;;;5.22;1.10;;;19.70;99.90;;;;;;5030130;28;20029;-52
2023/10/13 15:41:27;;;;;;;11.95;1.95;;;19.60;99.90;;;;;;5030282;28;20060;-54
2023/10/13 15:43:54;;;;;;;10.68;1.80;;;19.50;99.90;;;;;;5030189;28;20024;-56
2023/10/13 15:46:21;;;;;;;7.07;1.55;;;19.40;99.90;;;;;;5023878;28;20029;-53
2023/10/13 15:48:51;;;;;;;8.85;1.58;;;19.30;99.90;;;;;;5027155;28;20028;-52
2023/10/13 15:51:17;;;;;;;18.27;3.00;;;19.20;99.90;;;;;;5020332;28;20420;-56
2023/10/13 15:53:44;;;;;;;11.55;1.95;;;19.20;99.90;;;;;;5030055;28;20029;-57
2023/10/13 15:56:14;;;;;;;8.90;1.80;;;19.20;99.90;;;;;;5030037;28;20088;-55
2023/10/13 15:58:43;;;;;;;9.82;1.90;;;19.30;99.90;;;;;;5030255;28;20025;-58
2023/10/13 16:01:12;;;;;;;;;;;19.40;99.90;;;;;;5030540;28;20536;-58
2023/10/13 16:03:39;;;;;;;9.82;1.77;;;19.50;99.90;;;;;;5029493;28;19912;-50
2023/10/13 16:06:09;;;;;;;10.38;1.80;;;19.40;99.90;;;;;;5029706;28;20049;-54
2023/10/13 16:08:38;;;;;;;8.95;1.23;;;19.40;99.90;;;;;;5023034;28;20029;-59
2023/10/13 16:11:13;;;;;;;5.30;1.40;;;19.40;99.90;;;;;;5023425;28;20558;-57
2023/10/13 16:13:42;;;;;;;12.27;1.83;;;19.30;99.90;;;;;;5029389;28;20033;-58
2023/10/13 16:16:15;;;;;;;7.05;2.00;;;19.20;99.90;;;;;;5029476;28;20037;-56
2023/10/13 16:18:43;;;;;;;13.30;1.70;;;19.10;99.90;;;;;;5029588;28;20018;-61
2023/10/13 16:21:12;;;;;;;12.75;1.83;;;19.00;99.90;;;;;;5029714;28;20025;-60
2023/10/13 16:23:41;;;;;;;9.98;1.58;;;19.00;99.90;;;;;;5029973;28;20021;-56
2023/10/13 16:26:07;;;;;;;;;;;18.90;99.90;;;;;;5028951;28;20037;-57
2023/10/13 16:28:35;;;;;;;13.60;1.67;;;18.80;99.90;;;;;;5029808;28;20427;-55
2023/10/13 16:31:02;;;;;;;7.57;1.17;;;18.80;99.90;;;;;;5029505;28;20413;-53
2023/10/13 16:33:28;;;;;;;5.00;1.25;;;18.70;99.90;;;;;;5029531;28;20026;-53